createdAt,value
2017-06-20T00:00:27.202Z,9.68
2017-06-20T00:02:55.469Z,9.98
2017-06-20T00:05:22.979Z,10.00
2017-06-20T00:07:51.321Z,10.88
2017-06-20T00:10:18.830Z,11.48
2017-06-20T00:12:47.124Z,11.46
2017-06-20T00:15:14.630Z,10.56
2017-06-20T00:17:42.942Z,10.50
2017-06-20T00:20:11.217Z,10.06
2017-06-20T00:22:39.485Z,10.60
2017-06-20T00:25:07.805Z,11.92
2017-06-20T00:27:36.084Z,11.30
2017-06-20T00:30:03.641Z,10.52
2017-06-20T00:32:31.916Z,12.82
2017-06-20T00:35:00.182Z,11.00
2017-06-20T00:37:27.721Z,10.42
2017-06-20T00:39:55.217Z,12.92
2017-06-20T00:42:23.517Z,11.80
2017-06-20T00:44:51.037Z,12.08
2017-06-20T00:47:18.579Z,13.00
2017-06-20T00:49:46.887Z,12.22
2017-06-20T00:52:15.158Z,12.12
2017-06-20T00:54:42.700Z,12.64
2017-06-20T00:57:10.209Z,13.52
2017-06-20T00:59:38.514Z,12.68
2017-06-20T01:02:06.788Z,12.38
2017-06-20T01:04:35.093Z,12.82
2017-06-20T01:07:03.367Z,12.46
2017-06-20T01:09:30.909Z,12.88
2017-06-20T01:11:59.231Z,11.66
2017-06-20T01:14:26.734Z,11.84
2017-06-20T01:16:55.038Z,11.94
2017-06-20T01:19:22.552Z,13.88
2017-06-20T01:21:50.891Z,14.98
2017-06-20T01:24:19.164Z,14.04
2017-06-20T01:26:47.447Z,13.62
2017-06-20T01:29:15.755Z,13.16
2017-06-20T01:31:44.059Z,11.72
2017-06-20T01:34:12.350Z,13.68
2017-06-20T01:36:40.624Z,14.54
2017-06-20T01:39:08.148Z,16.42
2017-06-20T01:41:36.420Z,14.08
2017-06-20T01:44:04.705Z,13.24
2017-06-20T01:46:32.226Z,14.16
2017-06-20T01:49:00.534Z,13.88
2017-06-20T01:51:28.825Z,16.22
2017-06-20T01:53:57.096Z,14.66
2017-06-20T01:56:25.432Z,14.82
2017-06-20T01:58:53.714Z,18.58
2017-06-20T02:01:21.990Z,15.68
2017-06-20T02:03:49.532Z,13.24
2017-06-20T02:06:17.038Z,14.90
2017-06-20T02:08:44.566Z,13.94
2017-06-20T02:11:12.871Z,15.24
2017-06-20T02:13:41.140Z,15.66
2017-06-20T02:16:09.448Z,15.78
2017-06-20T02:18:36.952Z,16.32
2017-06-20T02:21:05.253Z,14.82
2017-06-20T02:23:33.525Z,16.64
2017-06-20T02:26:01.049Z,16.60
2017-06-20T02:28:29.324Z,18.18
2017-06-20T02:30:57.619Z,17.28
2017-06-20T02:33:25.910Z,18.80
2017-06-20T02:35:54.233Z,18.80
2017-06-20T02:38:22.506Z,18.30
2017-06-20T02:40:50.770Z,18.92
2017-06-20T02:43:19.062Z,19.96
2017-06-20T02:45:46.578Z,20.08
2017-06-20T02:48:14.878Z,18.62
2017-06-20T02:50:43.163Z,18.30
2017-06-20T02:53:11.460Z,19.74
2017-06-20T02:55:39.727Z,28.78
2017-06-20T02:58:08.060Z,21.24
2017-06-20T03:00:36.332Z,21.52
2017-06-20T03:03:04.604Z,20.46
2017-06-20T03:05:32.898Z,18.82
2017-06-20T03:08:01.168Z,20.30
2017-06-20T03:10:29.470Z,21.46
2017-06-20T03:12:57.750Z,19.50
2017-06-20T03:15:26.059Z,21.96
2017-06-20T03:17:53.560Z,22.54
2017-06-20T03:20:21.893Z,18.24
2017-06-20T03:22:50.169Z,20.90
2017-06-20T03:25:17.675Z,22.14
2017-06-20T03:27:45.973Z,23.30
2017-06-20T03:30:14.252Z,21.30
2017-06-20T03:32:42.553Z,24.82
2017-06-20T03:35:10.053Z,21.70
2017-06-20T03:37:38.365Z,24.24
2017-06-20T03:40:06.656Z,21.20
2017-06-20T03:42:34.966Z,22.68
2017-06-20T03:45:03.268Z,23.58
2017-06-20T03:47:30.777Z,21.78
2017-06-20T03:49:58.307Z,19.94
2017-06-20T03:52:26.573Z,22.78
2017-06-20T03:54:54.880Z,22.76
2017-06-20T03:57:23.141Z,25.00
2017-06-20T03:59:51.421Z,20.12
2017-06-20T04:02:19.709Z,27.68
2017-06-20T04:04:47.230Z,26.16
2017-06-20T04:07:15.524Z,22.76
2017-06-20T04:09:43.025Z,29.72
2017-06-20T04:12:11.341Z,21.94
2017-06-20T04:14:38.849Z,23.42
2017-06-20T04:17:07.124Z,25.20
2017-06-20T04:19:35.418Z,24.48
2017-06-20T04:22:03.696Z,23.76
2017-06-20T04:24:31.229Z,22.62
2017-06-20T04:26:59.497Z,24.32
2017-06-20T04:29:27.829Z,23.54
2017-06-20T04:31:56.096Z,22.98
2017-06-20T04:34:24.372Z,24.20
2017-06-20T04:36:52.665Z,25.76
2017-06-20T04:39:20.957Z,23.96
2017-06-20T04:41:49.244Z,25.10
2017-06-20T04:44:16.752Z,26.46
2017-06-20T04:46:45.044Z,25.00
2017-06-20T04:49:13.315Z,26.74
2017-06-20T04:51:41.622Z,25.76
2017-06-20T04:54:09.924Z,24.90
2017-06-20T04:56:37.436Z,24.32
2017-06-20T04:59:05.727Z,27.36
2017-06-20T05:01:34.016Z,24.58
2017-06-20T05:04:02.319Z,25.74
2017-06-20T05:06:30.602Z,25.54
2017-06-20T05:08:58.916Z,28.94
2017-06-20T05:11:27.199Z,28.54
2017-06-20T05:13:54.709Z,27.42
2017-06-20T05:16:23.001Z,29.78
2017-06-20T05:18:50.518Z,27.46
2017-06-20T05:21:18.821Z,29.58
2017-06-20T05:23:47.101Z,26.86
2017-06-20T05:26:14.624Z,27.24
2017-06-20T05:28:42.137Z,37.26
2017-06-20T05:31:10.439Z,16.08
2017-06-20T05:33:37.983Z,29.46
2017-06-20T05:36:06.287Z,26.52
2017-06-20T05:38:34.553Z,25.82
2017-06-20T05:41:02.085Z,26.90
2017-06-20T05:43:30.396Z,26.96
2017-06-20T05:45:58.677Z,27.52
2017-06-20T05:48:26.958Z,26.64
2017-06-20T05:50:55.255Z,25.88
2017-06-20T05:53:23.555Z,24.16
2017-06-20T05:55:51.086Z,26.70
2017-06-20T05:58:18.613Z,27.80
2017-06-20T06:00:46.158Z,25.04
2017-06-20T06:03:14.429Z,26.36
2017-06-20T06:05:41.938Z,26.44
2017-06-20T06:08:09.468Z,25.18
2017-06-20T06:10:37.746Z,23.72
2017-06-20T06:13:06.041Z,27.36
2017-06-20T06:15:33.566Z,25.86
2017-06-20T06:18:01.856Z,24.78
2017-06-20T06:20:30.157Z,28.44
2017-06-20T06:22:58.486Z,25.48
2017-06-20T06:25:26.760Z,28.44
2017-06-20T06:27:55.035Z,24.78
2017-06-20T06:30:22.552Z,24.64
2017-06-20T06:32:50.826Z,22.70
2017-06-20T06:35:19.116Z,22.32
2017-06-20T06:37:47.411Z,26.06
2017-06-20T06:40:14.912Z,27.06
2017-06-20T06:42:43.206Z,24.22
2017-06-20T06:45:10.711Z,23.50
2017-06-20T06:47:38.233Z,26.50
2017-06-20T06:50:05.758Z,22.84
2017-06-20T06:52:34.025Z,29.52
2017-06-20T06:55:01.550Z,25.48
2017-06-20T06:57:29.816Z,26.58
2017-06-20T06:59:58.108Z,24.30
2017-06-20T07:02:26.412Z,22.32
2017-06-20T07:04:54.686Z,25.24
2017-06-20T07:07:22.957Z,22.40
2017-06-20T07:09:51.253Z,21.72
2017-06-20T07:12:19.548Z,26.56
2017-06-20T07:14:47.844Z,24.42
2017-06-20T07:17:16.116Z,23.94
2017-06-20T07:19:44.404Z,27.02
2017-06-20T07:22:12.676Z,25.82
2017-06-20T07:24:40.975Z,26.14
2017-06-20T07:27:09.239Z,24.50
2017-06-20T07:29:37.538Z,20.98
2017-06-20T07:32:05.813Z,22.54
2017-06-20T07:34:33.312Z,25.12
2017-06-20T07:37:00.837Z,23.82
2017-06-20T07:39:28.340Z,22.38
2017-06-20T07:41:56.826Z,24.54
2017-06-20T07:44:25.088Z,23.12
2017-06-20T07:46:53.388Z,21.88
2017-06-20T07:49:21.653Z,21.58
2017-06-20T07:51:49.959Z,23.22
2017-06-20T07:54:18.300Z,19.98
2017-06-20T07:56:46.590Z,31.40
2017-06-20T07:59:14.116Z,21.18
2017-06-20T08:01:42.421Z,18.84
2017-06-20T08:04:10.696Z,20.30
2017-06-20T08:06:38.988Z,17.92
2017-06-20T08:09:06.537Z,17.26
2017-06-20T08:11:34.808Z,17.48
2017-06-20T08:14:03.096Z,21.40
2017-06-20T08:16:31.389Z,19.58
2017-06-20T08:18:59.878Z,22.48
2017-06-20T08:21:33.862Z,18.34
2017-06-20T08:24:02.972Z,19.08
2017-06-20T08:26:31.261Z,19.06
2017-06-20T08:28:58.765Z,16.20
2017-06-20T08:31:27.057Z,17.58
2017-06-20T08:33:54.665Z,16.96
2017-06-20T08:36:22.947Z,15.44
2017-06-20T08:38:51.249Z,18.58
2017-06-20T08:41:19.551Z,16.44
2017-06-20T08:43:47.083Z,15.30
2017-06-20T08:46:15.361Z,16.92
2017-06-20T08:48:43.736Z,18.12
2017-06-20T08:51:12.009Z,15.68
2017-06-20T08:53:40.277Z,14.90
2017-06-20T08:56:07.813Z,15.02
2017-06-20T08:58:35.330Z,15.32
2017-06-20T09:01:03.089Z,17.26
2017-06-20T09:03:31.424Z,16.08
2017-06-20T09:05:58.989Z,14.84
2017-06-20T09:08:26.487Z,15.34
2017-06-20T09:10:54.008Z,13.32
2017-06-20T09:13:22.306Z,17.78
2017-06-20T09:15:50.575Z,14.46
2017-06-20T09:18:18.863Z,14.12
2017-06-20T09:20:47.133Z,13.72
2017-06-20T09:23:15.442Z,13.52
2017-06-20T09:25:43.706Z,18.32
2017-06-20T09:28:11.215Z,16.10
2017-06-20T09:30:39.541Z,14.64
2017-06-20T09:33:07.808Z,16.38
2017-06-20T09:35:36.084Z,14.22
2017-06-20T09:38:04.385Z,15.88
2017-06-20T09:40:31.929Z,14.30
2017-06-20T09:43:00.199Z,14.16
2017-06-20T09:45:28.493Z,13.48
2017-06-20T09:47:56.796Z,12.96
2017-06-20T09:50:25.104Z,12.56
2017-06-20T09:52:53.409Z,17.00
2017-06-20T09:55:20.925Z,12.12
2017-06-20T09:57:49.201Z,13.08
2017-06-20T10:00:17.505Z,13.00
2017-06-20T10:02:45.770Z,10.56
2017-06-20T10:05:13.314Z,11.46
2017-06-20T10:07:41.581Z,12.90
2017-06-20T10:10:09.881Z,14.62
2017-06-20T10:12:38.161Z,10.20
2017-06-20T10:15:06.448Z,8.90
2017-06-20T10:17:34.730Z,8.82
2017-06-20T10:20:03.001Z,9.76
2017-06-20T10:29:38.521Z,9.70
2017-06-20T10:32:06.791Z,9.52
2017-06-20T10:34:35.077Z,11.10
2017-06-20T10:37:04.364Z,10.32
2017-06-20T10:39:32.678Z,10.10
2017-06-20T10:42:00.946Z,10.44
2017-06-20T10:44:29.218Z,12.16
2017-06-20T10:46:57.551Z,9.26
2017-06-20T10:49:25.825Z,8.92
2017-06-20T10:51:54.100Z,10.48
2017-06-20T10:54:22.428Z,9.64
2017-06-20T10:56:50.711Z,10.94
2017-06-20T10:59:18.979Z,9.42
2017-06-20T11:01:47.272Z,10.04
2017-06-20T11:04:15.588Z,12.06
2017-06-20T11:06:43.908Z,9.44
2017-06-20T11:09:12.972Z,9.90
2017-06-20T11:11:41.269Z,9.58
2017-06-20T11:14:09.562Z,11.00
2017-06-20T11:16:37.832Z,9.42
2017-06-20T11:19:06.105Z,22.66
2017-06-20T11:21:34.402Z,9.00
2017-06-20T11:24:02.668Z,8.16
2017-06-20T11:26:30.970Z,10.64
2017-06-20T11:28:59.275Z,9.12
2017-06-20T11:31:27.545Z,8.84
2017-06-20T11:33:55.822Z,15.80
2017-06-20T11:36:24.117Z,8.02
2017-06-20T11:38:52.412Z,8.58
2017-06-20T11:41:20.680Z,9.32
2017-06-20T11:43:48.988Z,10.68
2017-06-20T11:46:17.261Z,9.00
2017-06-20T11:48:44.773Z,9.58
2017-06-20T11:51:13.067Z,7.94
2017-06-20T11:53:41.335Z,9.64
2017-06-20T11:56:09.629Z,9.90
2017-06-20T11:58:37.923Z,8.98
2017-06-20T12:01:06.193Z,10.00
2017-06-20T12:03:34.496Z,8.38
2017-06-20T12:06:02.770Z,9.84
2017-06-20T12:08:31.035Z,8.66
2017-06-20T12:10:59.324Z,7.44
2017-06-20T12:13:27.595Z,8.36
2017-06-20T12:15:55.902Z,8.46
2017-06-20T12:18:24.183Z,8.28
2017-06-20T12:20:52.448Z,8.72
2017-06-20T12:23:20.747Z,8.48
2017-06-20T12:25:49.041Z,7.60
2017-06-20T12:28:17.334Z,7.92
2017-06-20T12:30:45.620Z,9.78
2017-06-20T12:33:13.886Z,8.42
2017-06-20T12:35:42.146Z,7.98
2017-06-20T12:38:10.444Z,10.14
2017-06-20T12:40:38.721Z,8.80
2017-06-20T12:43:07.024Z,7.92
2017-06-20T12:45:35.285Z,7.86
2017-06-20T12:48:03.553Z,10.04
2017-06-20T12:50:31.846Z,7.28
2017-06-20T12:53:00.110Z,8.02
2017-06-20T12:55:28.393Z,7.60
2017-06-20T12:57:56.663Z,10.04
2017-06-20T13:00:24.207Z,11.14
2017-06-20T13:02:52.477Z,8.22
2017-06-20T13:05:20.746Z,7.66
2017-06-20T13:07:49.035Z,11.04
2017-06-20T13:10:17.300Z,7.36
2017-06-20T13:12:45.621Z,8.24
2017-06-20T13:15:13.889Z,7.10
2017-06-20T13:17:42.191Z,7.82
2017-06-20T13:20:10.484Z,6.84
2017-06-20T13:22:38.761Z,7.92
2017-06-20T13:35:07.444Z,8.34
2017-06-20T13:37:35.758Z,8.04
2017-06-20T13:40:04.037Z,7.46
2017-06-20T13:42:32.361Z,7.92
2017-06-20T13:45:01.301Z,7.76
2017-06-20T13:47:29.577Z,10.66
2017-06-20T13:49:57.878Z,8.64
2017-06-20T13:52:26.155Z,15.04
2017-06-20T13:54:53.669Z,7.52
2017-06-20T14:11:41.987Z,8.02
2017-06-20T14:14:10.299Z,7.00
2017-06-20T14:16:38.574Z,8.04
2017-06-20T14:19:06.840Z,8.00
2017-06-20T14:21:35.140Z,10.42
2017-06-20T14:24:03.409Z,7.32
2017-06-20T14:26:31.717Z,8.70
2017-06-20T14:28:59.989Z,9.08
2017-06-20T14:31:28.273Z,13.56
2017-06-20T14:33:56.594Z,7.66
2017-06-20T14:36:24.982Z,9.32
2017-06-20T14:38:53.273Z,6.62
2017-06-20T14:41:21.534Z,9.24
2017-06-20T14:43:49.869Z,10.76
2017-06-20T14:46:18.130Z,8.14
2017-06-20T14:48:46.429Z,7.98
2017-06-20T14:51:14.739Z,8.60
2017-06-20T14:53:43.010Z,7.46
2017-06-20T14:56:11.339Z,7.46
2017-06-20T14:58:38.872Z,9.16
2017-06-20T15:01:07.144Z,7.88
2017-06-20T15:03:35.445Z,8.20
2017-06-20T15:06:03.724Z,9.14
2017-06-20T15:08:32.026Z,9.18
2017-06-20T15:11:00.301Z,8.54
2017-06-20T15:13:28.604Z,8.20
2017-06-20T15:15:56.886Z,8.08
2017-06-20T15:18:25.173Z,11.52
2017-06-20T15:20:53.509Z,8.38
2017-06-20T15:23:21.786Z,7.86
2017-06-20T15:25:50.087Z,8.28
2017-06-20T15:28:18.356Z,9.34
2017-06-20T15:30:46.681Z,8.52
2017-06-20T15:33:14.944Z,9.72
2017-06-20T15:35:43.220Z,10.50
2017-06-20T15:38:11.497Z,10.04
2017-06-20T15:40:38.997Z,9.20
2017-06-20T15:43:07.295Z,9.74
2017-06-20T15:45:35.559Z,8.32
2017-06-20T15:48:03.876Z,9.26
2017-06-20T15:50:32.142Z,9.18
2017-06-20T15:53:00.419Z,9.94
2017-06-20T15:55:28.738Z,12.52
2017-06-20T15:57:57.021Z,8.86
2017-06-20T16:00:25.367Z,8.72
2017-06-20T16:02:53.632Z,8.06
2017-06-20T16:05:21.149Z,9.08
2017-06-20T16:07:49.453Z,9.60
2017-06-20T16:10:17.762Z,9.00
2017-06-20T16:12:46.032Z,9.58
2017-06-20T16:15:14.311Z,8.58
2017-06-20T16:17:42.608Z,8.40
2017-06-20T16:20:10.879Z,8.52
2017-06-20T16:22:39.180Z,9.66
2017-06-20T16:25:07.473Z,9.08
2017-06-20T16:27:35.776Z,9.22
2017-06-20T16:30:04.069Z,8.80
2017-06-20T16:32:32.354Z,8.56
2017-06-20T16:35:00.650Z,7.94
2017-06-20T16:37:28.916Z,9.10
2017-06-20T16:39:57.217Z,8.60
2017-06-20T16:42:25.480Z,7.62
2017-06-20T16:44:53.756Z,9.66
2017-06-20T16:47:22.042Z,8.40
2017-06-20T16:49:50.309Z,9.38
2017-06-20T16:52:18.610Z,8.16
2017-06-20T16:54:46.878Z,8.10
2017-06-20T16:57:15.188Z,10.76
2017-06-20T16:59:43.464Z,7.88
2017-06-20T17:02:11.771Z,7.64
2017-06-20T17:04:40.050Z,10.68
2017-06-20T17:07:08.318Z,7.74
2017-06-20T17:09:35.838Z,7.24
2017-06-20T17:12:04.126Z,7.02
2017-06-20T17:14:32.417Z,8.36
2017-06-20T17:17:00.678Z,7.08
2017-06-20T17:19:28.971Z,7.00
2017-06-20T17:21:57.246Z,10.00
2017-06-20T17:24:25.534Z,6.86
2017-06-20T17:26:53.830Z,6.74
2017-06-20T17:29:22.124Z,7.46
2017-06-20T17:31:50.394Z,6.98
2017-06-20T17:34:17.925Z,6.78
2017-06-20T17:36:46.193Z,6.80
2017-06-20T17:39:14.493Z,6.04
2017-06-20T17:41:42.752Z,7.80
2017-06-20T17:44:11.013Z,6.38
2017-06-20T17:46:39.302Z,9.74
2017-06-20T17:49:07.570Z,6.66
2017-06-20T17:51:35.858Z,5.64
2017-06-20T17:54:04.124Z,12.02
2017-06-20T17:56:32.404Z,6.48
2017-06-20T17:59:00.665Z,5.94
2017-06-20T18:01:29.076Z,13.44
2017-06-20T18:03:57.348Z,9.04
2017-06-20T18:06:25.616Z,9.36
2017-06-20T18:08:53.906Z,6.48
2017-06-20T18:11:22.182Z,11.02
2017-06-20T18:13:50.477Z,9.92
2017-06-20T18:16:18.749Z,6.06
2017-06-20T18:18:47.049Z,8.42
2017-06-20T18:21:15.313Z,6.60
2017-06-20T18:23:43.623Z,8.72
2017-06-20T18:26:11.153Z,7.64
2017-06-20T18:28:38.660Z,8.12
2017-06-20T18:31:06.959Z,6.64
2017-06-20T18:33:35.237Z,7.92
2017-06-20T18:36:03.510Z,8.30
2017-06-20T18:38:31.866Z,9.72
2017-06-20T18:41:00.159Z,7.40
2017-06-20T18:43:28.424Z,9.82
2017-06-20T18:45:56.729Z,9.96
2017-06-20T18:48:25.005Z,8.06
2017-06-20T18:50:53.278Z,16.18
2017-06-20T18:53:21.579Z,20.50
2017-06-20T18:55:49.854Z,11.80
2017-06-20T18:58:18.152Z,11.10
2017-06-20T19:00:46.416Z,9.32
2017-06-20T19:03:14.704Z,8.48
2017-06-20T19:05:42.973Z,8.88
2017-06-20T19:08:11.269Z,21.88
2017-06-20T19:10:39.535Z,10.26
2017-06-20T19:13:07.841Z,13.64
2017-06-20T19:15:36.108Z,8.30
2017-06-20T19:18:04.401Z,8.20
2017-06-20T19:20:32.670Z,10.70
2017-06-20T19:23:00.944Z,9.72
2017-06-20T19:25:29.241Z,13.12
2017-06-20T19:27:57.518Z,10.14
2017-06-20T19:30:25.818Z,10.86
2017-06-20T19:32:54.094Z,13.48
2017-06-20T19:35:22.386Z,8.32
2017-06-20T19:37:50.646Z,8.52
2017-06-20T19:40:18.941Z,9.34
2017-06-20T19:42:47.242Z,12.08
2017-06-20T19:45:15.507Z,9.00
2017-06-20T19:47:43.810Z,17.94
2017-06-20T19:50:12.078Z,8.86
2017-06-20T19:52:40.350Z,27.28
2017-06-20T19:55:08.644Z,9.00
2017-06-20T19:57:36.177Z,8.44
2017-06-20T20:00:04.453Z,8.86
2017-06-20T20:02:32.753Z,7.46
2017-06-20T20:05:01.024Z,8.02
2017-06-20T20:07:29.337Z,8.02
2017-06-20T20:09:56.873Z,6.78
2017-06-20T20:12:25.152Z,10.94
2017-06-20T20:14:52.686Z,9.10
2017-06-20T20:17:20.965Z,21.62
2017-06-20T20:19:49.260Z,9.66
2017-06-20T20:22:17.532Z,8.12
2017-06-20T20:24:45.832Z,8.60
2017-06-20T20:27:14.115Z,12.14
2017-06-20T20:29:42.388Z,9.46
2017-06-20T20:32:10.680Z,8.18
2017-06-20T20:34:38.985Z,7.20
2017-06-20T20:37:07.265Z,13.04
2017-06-20T20:39:35.540Z,7.04
2017-06-20T20:42:03.840Z,8.90
2017-06-20T20:44:32.113Z,5.60
2017-06-20T20:47:00.408Z,15.92
2017-06-20T20:49:28.669Z,5.50
2017-06-20T20:51:56.965Z,5.30
2017-06-20T20:54:25.237Z,8.10
2017-06-20T20:56:53.532Z,5.68
2017-06-20T20:59:21.829Z,7.48
2017-06-20T21:01:50.140Z,7.22
2017-06-20T21:04:18.412Z,4.82
2017-06-20T21:06:46.695Z,9.12
2017-06-20T21:09:15.029Z,7.12
2017-06-20T21:11:43.307Z,5.74
2017-06-20T21:14:11.578Z,8.00
2017-06-20T21:16:39.884Z,6.16
2017-06-20T21:19:08.152Z,3.72
2017-06-20T21:21:36.424Z,5.32
2017-06-20T21:24:04.721Z,10.34
2017-06-20T21:26:33.024Z,5.94
2017-06-20T21:29:01.298Z,5.28
2017-06-20T21:31:29.561Z,6.50
2017-06-20T21:33:57.860Z,8.36
2017-06-20T21:36:25.364Z,5.70
2017-06-20T21:38:53.665Z,6.62
2017-06-20T21:41:21.933Z,5.36
2017-06-20T21:43:50.240Z,8.52
2017-06-20T21:46:18.544Z,8.44
2017-06-20T21:48:46.809Z,6.08
2017-06-20T21:51:15.104Z,4.32
2017-06-20T21:53:43.377Z,8.06
2017-06-20T21:56:11.664Z,7.06
2017-06-20T21:58:39.930Z,8.54
2017-06-20T22:01:08.245Z,7.12
2017-06-20T22:03:36.504Z,6.92
2017-06-20T22:06:04.766Z,3.28
2017-06-20T22:08:33.080Z,11.04
2017-06-20T22:11:03.347Z,6.48
2017-06-20T22:13:31.672Z,4.78
2017-06-20T22:15:59.928Z,5.98
2017-06-20T22:18:28.196Z,9.34
2017-06-20T22:20:56.492Z,4.88
2017-06-20T22:23:24.752Z,7.38
2017-06-20T22:25:53.049Z,9.04
2017-06-20T22:28:21.321Z,11.04
2017-06-20T22:30:49.613Z,5.90
2017-06-20T22:33:17.878Z,5.22
2017-06-20T22:35:46.178Z,7.10
2017-06-20T22:38:13.680Z,4.32
2017-06-20T22:40:41.948Z,5.66
2017-06-20T22:43:10.232Z,5.90
2017-06-20T22:45:37.725Z,4.14
2017-06-20T22:48:06.017Z,15.96
2017-06-20T22:50:34.281Z,9.74
2017-06-20T22:53:02.568Z,4.40
2017-06-20T22:55:30.830Z,5.92
2017-06-20T22:57:59.156Z,5.62
2017-06-20T23:00:27.428Z,5.62
2017-06-20T23:02:55.705Z,11.02
2017-06-20T23:05:23.992Z,5.16
2017-06-20T23:07:52.277Z,7.18
2017-06-20T23:10:20.577Z,7.24
2017-06-20T23:12:48.843Z,6.62
2017-06-20T23:15:17.133Z,6.46
2017-06-20T23:17:45.409Z,7.00
2017-06-20T23:20:12.932Z,6.46
2017-06-20T23:22:41.200Z,8.80
2017-06-20T23:25:09.485Z,7.16
2017-06-20T23:27:37.777Z,6.98
2017-06-20T23:30:06.045Z,6.80
2017-06-20T23:32:34.334Z,7.28
2017-06-20T23:35:02.608Z,5.46
2017-06-20T23:37:30.901Z,7.98
2017-06-20T23:40:00.108Z,6.76
2017-06-20T23:42:28.393Z,5.30
2017-06-20T23:44:56.649Z,6.62
2017-06-20T23:47:24.941Z,4.12
2017-06-20T23:49:53.204Z,4.06
2017-06-20T23:52:21.501Z,7.24
2017-06-20T23:54:49.764Z,5.92
2017-06-20T23:57:18.068Z,4.86
2017-06-20T23:59:46.336Z,11.50
